• Join FlightAware (Why Join?)
  • Login
  • US Flag 
09:56PM EDT


 

Airport Tracker/Info


-or-


 

Live Flight TrackerFlight Track Log ✈ SWA2596 ✈ 11-Feb-2014 ✈ KMDW - KBHM

Flight Track Log - Related Links

Times and Time Zones

All times are in EST time to prevent confusion due to time zone crossing. See the SWA2596 flight status page for this flight to view local times or setup timezone preferences in your user account.

Time Position Orientation Groundspeed Altitude Reporting Facility
EST Latitude Longitude Course Direction KTS MPH feet Rate Location/Type
10:09PM 41.7456 -87.7781 180° South 172 198 3,000  Level Chicago Center
10:10PM 41.6856 -87.7947 192° South 217 250 5,600 3,000 Climbing Chicago Center
10:11PM 41.6142 -87.8172 193° South 253 291 9,200 3,480 Climbing Chicago Center
10:12PM 41.5392 -87.8397 193° South 269 310 12,700 2,700 Climbing Chicago Center
10:13PM 41.4542 -87.8667 193° South 300 345 14,800 2,220 Climbing Chicago Center
10:14PM 41.1936 -87.8833 180° South  Level FlightAware Approximate
10:14PM 41.3531 -87.8844 188° South 355 409 17,300  Level Chicago Center
10:15PM 41.2458 -87.8936 184° South 378 435 19,400 2,400 Climbing Chicago Center
10:16PM 41.1117 -87.8886 178° South 397 457 22,200 2,280 Climbing Chicago Center
10:17PM 40.9942 -87.8856 179° South 416 479 24,100 1,860 Climbing Chicago Center
10:18PM 40.8736 -87.8808 178° South 430 495 26,000 1,740 Climbing Chicago Center
10:19PM 40.7511 -87.8764 178° South 438 504 27,700 1,620 Climbing Chicago Center
10:20PM 40.6242 -87.8733 179° South 452 520 29,400 2,160 Climbing Chicago Center
10:21PM 40.5011 -87.8686 178° South 446 513 32,100 2,580 Climbing Chicago Center
10:22PM 40.3858 -87.8658 179° South 421 484 34,700 1,860 Climbing Chicago Center
10:23PM 40.2750 -87.8567 176° South 402 463 35,900 960 Climbing Chicago Center
10:24PM 40.1550 -87.8364 173° South 413 475 36,700 480 Climbing Chicago Center
10:25PM 40.0358 -87.8208 174° South 419 482 37,000 120 Climbing Indianapolis Center
10:26PM 39.9208 -87.8019 173° South 419 482 37,000  Level Indianapolis Center
10:27PM 39.8089 -87.7861 174° South 412 474 37,000  Level Indianapolis Center
10:28PM 39.6983 -87.7694 173° South 405 466 37,000  Level Indianapolis Center
10:29PM 39.5878 -87.7528 173° South 403 464 37,000  Level Indianapolis Center
10:30PM 39.4544 -87.7333 174° South 403 464 37,000  Level Indianapolis Center
10:31PM 39.3461 -87.7181 174° South 403 464 37,000  Level Indianapolis Center
10:32PM 39.2356 -87.7014 173° South 400 460 37,000  Level Indianapolis Center
10:33PM 39.1242 -87.6853 174° South 400 460 37,000  Level Indianapolis Center
10:34PM 39.0131 -87.6689 173° South 401 461 37,000  Level Indianapolis Center
10:35PM 38.9033 -87.6525 173° South 398 458 37,000  Level Indianapolis Center
10:36PM 38.7925 -87.6367 174° South 398 458 37,000  Level Indianapolis Center
10:37PM 38.6822 -87.6203 173° South 399 459 37,000  Level Indianapolis Center
10:38PM 38.5728 -87.6053 174° South 396 456 37,000  Level Indianapolis Center
10:39PM 38.4636 -87.5892 173° South 395 455 37,000  Level Indianapolis Center
10:40PM 38.3539 -87.5733 174° South 397 457 37,000  Level Indianapolis Center
10:41PM 38.2447 -87.5578 174° South 396 456 37,000  Level Indianapolis Center
10:42PM 38.1136 -87.5392 174° South 396 456 37,000  Level Indianapolis Center
10:43PM 38.0042 -87.5233 173° South 396 456 37,000  Level Indianapolis Center
10:44PM 37.8953 -87.5092 174° South 394 453 37,000  Level Indianapolis Center
10:45PM 37.7869 -87.4928 173° South 392 451 37,000  Level Indianapolis Center
10:46PM 37.6883 -87.4781 173° South 392 451 37,000  Level Indianapolis Center
10:47PM 37.5800 -87.4628 174° South 389 448 37,000  Level Indianapolis Center
10:48PM 37.4717 -87.4489 174° South 388 447 37,000  Level Indianapolis Center
10:49PM 37.3647 -87.4333 173° South 386 444 37,000  Level Indianapolis Center
10:50PM 37.2569 -87.4183 174° South 385 443 37,000  Level Indianapolis Center
10:51PM 37.1500 -87.4036 174° South 384 442 37,000  Level Indianapolis Center
10:52PM 37.0269 -87.3869 174° South 380 437 37,000  Level Indianapolis Center
10:53PM 36.9206 -87.3728 174° South 381 438 37,000  Level Indianapolis Center
10:54PM 36.8150 -87.3589 174° South 379 436 37,000  Level Indianapolis Center
10:55PM 36.7094 -87.3422 173° South 380 437 37,000  Level Indianapolis Center
10:56PM 36.6050 -87.3289 174° South 377 434 37,000  Level Indianapolis Center
10:57PM 36.4986 -87.3142 174° South 381 438 37,000  Level Indianapolis Center
10:58PM 36.3947 -87.2997 174° South 377 434 37,000  Level Indianapolis Center
10:59PM 36.2914 -87.2856 174° South 374 430 37,000  Level Indianapolis Center
11:00PM 36.1886 -87.2722 174° South 371 427 37,000  Level Indianapolis Center
11:01PM 36.0847 -87.2589 174° South 373 429 37,000  Level Indianapolis Center
11:02PM 35.9814 -87.2442 173° South 373 429 37,000  Level Indianapolis Center
11:04PM 35.8597 -87.2283 174° South 373 429 37,000  Level Memphis Center
11:05PM 35.7561 -87.2139 174° South 372 428 37,000 -540 Level Memphis Center
11:06PM 35.6539 -87.2006 174° South 369 425 36,000 -1,020 Descending Memphis Center
11:07PM 35.5536 -87.1869 174° South 362 417 35,000 -540 Descending Memphis Center
11:08PM 35.4497 -87.1739 174° South 367 422 35,000  Level Memphis Center
11:09PM 35.3597 -87.1611 173° South 370 426 35,000 -600 Level Memphis Center
11:10PM 35.2383 -87.1450 174° South 367 422 33,800 -1,080 Descending Memphis Center
11:11PM 35.1356 -87.1317 174° South 369 425 32,900 -900 Descending Memphis Center
11:12PM 35.0294 -87.1181 174° South 378 435 32,000 -960 Descending Memphis Center
11:13PM 34.9194 -87.1039 174° South 391 450 31,000 -960 Descending Memphis Center
11:14PM 34.8083 -87.0889 174° South 398 458 30,100 -960 Descending Memphis Center
11:15PM 34.6961 -87.0731 173° South 402 463 29,100 -1,740 Descending Memphis Center
11:16PM 34.5792 -87.0586 174° South 415 478 26,700 -2,700 Descending Memphis Center
11:17PM 34.4361 -87.0408 174° South 419 482 23,200 -2,820 Descending Atlanta Center
11:18PM 34.3508 -87.0297 174° South 408 470 21,000 -2,700 Descending Memphis Center
11:19PM 34.2456 -87.0158 174° South 390 449 18,300 -2,520 Descending Memphis Center
11:20PM 34.1450 -87.0028 174° South 371 427 15,900 -2,460 Descending Memphis Center
11:21PM 34.0453 -86.9897 174° South 363 418 13,300 -2,580 Descending Memphis Center
11:22PM 33.9483 -86.9786 175° South 358 412 10,700 -1,740 Descending Memphis Center
11:23PM 33.8608 -86.9664 173° South 335 386 9,900 -1,380 Descending Memphis Center
11:24PM 33.7697 -86.9725 183° South 296 341 7,900 -1,920 Descending Atlanta Center
11:24PM 33.7675 -86.9775 242° Southwest 268 308 7,800 -1,620 Descending Atlanta Center
11:25PM 33.6944 -86.9825 183° South 284 327 6,300 -1,500 Descending Atlanta Center
11:25PM 33.6922 -86.9875 242° Southwest 269 310 6,300 -1,560 Level Atlanta Center
11:26PM 33.6208 -86.9975 187° South 260 299 4,700 -1,680 Descending Atlanta Center
11:27PM 33.5519 -87.0000 182° South 268 308 3,000 -1,680 Descending Atlanta Center
11:27PM 33.5500 -87.0025 227° Southwest 250 288 3,000 -540 Level Atlanta Center
11:28PM 33.4919 -86.9806 163° South 245 282 2,500 -420 Descending Atlanta Center
11:28PM 33.4856 -86.9853 212° Southwest 205 236 2,600 60 Climbing Atlanta Center
11:29PM 33.4744 -86.9303 104° East 171 197 2,600  Level Atlanta Center
11:29PM 33.4703 -86.9325 204° Southwest 176 203 2,600  Level Atlanta Center
11:30PM 33.4944 -86.8786 62° Northeast 176 203 2,600 -300 Level Atlanta Center
11:31PM 33.5139 -86.8417 58° Northeast 114 131 2,100 -600 Descending Atlanta Center
11:32PM 33.5314 -86.8100 56° Northeast 105 121 1,400 -720 Descending Atlanta Center